Here is the Quick Look data you requested

The Data originates at the National Weather Service, and is made available here by the UAlbany Department of Atmospheric and Environmental Sciences

Surface Observations

K1V4 261454Z AUTO 20/19 A2988 RMK AO1 SLP114 P0001 60002 T02000189 58013 $=
KBTV 261454Z 18019G27KT 10SM SCT014 BKN100 23/19 A2983 RMK AO2 PK WND
 18030/1427 SLP101 T02280189 56009=
KDDH 261454Z AUTO 18006KT 10SM BKN027 OVC035 24/19 A2995 RMK AO2 SLP136
 T02390189 56008=
KEFK 261455Z AUTO 15009KT 10SM SCT016 BKN027 OVC035 20/19 A2986 RMK AO2
 T02000185=
KMPV 261451Z AUTO 17009KT 10SM FEW036 22/19 A2993 RMK AO2 SLP132 60000
 T02170194 58013=
KMVL 261454Z AUTO 21009KT 10SM OVC033 22/19 A2986 RMK AO2 SLP111 T02220194
 56017=
KRUT 261456Z AUTO 18010KT 10SM BKN044 BKN080 OVC095 24/19 A2991 RMK AO2 SLP140
 6//// T02440194 56015 PNO $=
KVSF 261454Z AUTO 16008KT 10SM SCT010 22/20 A2994 RMK AO2 SLP140 T02170200
 58015=